Time;durP1;ratioP1;P1;durP2;ratioP2;P2;SDS_P1;SDS_P2;PMS_P1;PMS_P2;Temp;Humidity;BMP_temperature;BMP_pressure;BME280_temperature;BME280_humidity;BME280_pressure;Samples;Min_cycle;Max_cycle;Signal;HPM_P1;HPM_P2
2023/07/17 00:00:51;;;;;;;0.20;0.20;;;;;;;18.96;62.17;97615.78;5040454;28;20069;-72
2023/07/17 00:03:19;;;;;;;0.00;0.00;;;;;;;18.95;62.20;97625.78;5039477;28;20052;-72
2023/07/17 00:05:47;;;;;;;0.00;0.00;;;;;;;18.96;62.28;97615.78;5037484;28;20125;-72
2023/07/17 00:08:14;;;;;;;0.03;0.03;;;;;;;18.95;62.28;97617.69;5039856;28;20446;-71
2023/07/17 00:10:43;;;;;;;0.30;0.30;;;;;;;18.95;62.37;97622.25;5041327;28;20429;-72
2023/07/17 00:13:11;;;;;;;0.10;0.10;;;;;;;18.92;62.48;97622.75;5040350;28;20047;-72
2023/07/17 00:15:39;;;;;;;0.03;0.03;;;;;;;18.96;62.20;97623.91;5039105;28;20056;-73
2023/07/17 00:18:08;;;;;;;0.03;0.03;;;;;;;19.04;61.88;97618.06;5032892;28;20044;-72
2023/07/17 00:20:36;;;;;;;0.13;0.13;;;;;;;19.15;61.59;97627.97;5039234;28;20056;-73
2023/07/17 00:23:03;;;;;;;0.10;0.10;;;;;;;19.17;61.40;97631.25;5039524;28;20037;-73
2023/07/17 00:25:35;;;;;;;0.10;0.10;;;;;;;19.00;62.02;97630.44;5040773;28;20045;-73
2023/07/17 00:28:03;;;;;;;0.03;0.03;;;;;;;18.89;62.26;97623.25;5040005;28;20041;-73
2023/07/17 00:30:30;;;;;;;0.10;0.10;;;;;;;18.94;62.31;97631.44;5040204;28;20048;-73
2023/07/17 00:32:58;;;;;;;0.17;0.10;;;;;;;18.88;62.30;97624.31;5039849;28;20116;-73
2023/07/17 00:35:27;;;;;;;0.10;0.10;;;;;;;18.95;62.13;97623.09;5021805;28;20390;-73
2023/07/17 00:37:55;;;;;;;0.10;0.10;;;;;;;18.90;62.57;97622.16;5040772;28;20033;-72
2023/07/17 00:40:23;;;;;;;0.10;0.10;;;;;;;18.80;62.88;97622.00;5039513;28;20514;-73
2023/07/17 00:42:51;;;;;;;0.00;0.00;;;;;;;18.88;62.58;97618.91;5040014;28;20042;-72
2023/07/17 00:45:19;;;;;;;0.03;0.03;;;;;;;18.69;63.35;97632.66;5027769;28;20549;-72
2023/07/17 00:47:46;;;;;;;0.03;0.03;;;;;;;18.61;63.34;97624.97;5019968;28;20053;-72
2023/07/17 00:50:14;;;;;;;0.00;0.00;;;;;;;18.81;62.42;97619.06;5041235;28;20075;-72
2023/07/17 00:52:44;;;;;;;0.03;0.03;;;;;;;18.87;62.24;97619.97;5038242;28;20056;-71
2023/07/17 00:55:12;;;;;;;0.13;0.13;;;;;;;18.97;62.38;97620.97;5020275;28;20066;-72
2023/07/17 00:57:42;;;;;;;0.10;0.10;;;;;;;18.94;62.36;97621.44;5021017;28;20057;-72
2023/07/17 01:00:12;;;;;;;0.03;0.03;;;;;;;19.10;62.06;97621.69;5021309;28;21659;-72
2023/07/17 01:02:40;;;;;;;0.10;0.10;;;;;;;19.22;61.72;97627.78;5023361;28;20052;-74
2023/07/17 01:05:09;;;;;;;0.13;0.13;;;;;;;19.15;62.19;97624.44;5022087;28;20037;-72
2023/07/17 01:07:37;;;;;;;0.13;0.13;;;;;;;18.83;63.21;97621.53;5038193;28;20049;-72
2023/07/17 01:10:08;;;;;;;0.15;0.15;;;;;;;18.65;63.55;97634.25;5039415;28;20037;-71
2023/07/17 01:12:36;;;;;;;0.10;0.10;;;;;;;18.59;63.32;97629.78;5040009;28;20049;-73
2023/07/17 01:15:07;;;;;;;0.03;0.03;;;;;;;18.72;63.14;97625.13;5041085;28;20033;-72
2023/07/17 01:17:35;;;;;;;0.13;0.13;;;;;;;18.77;63.29;97622.53;5040270;28;20065;-72
2023/07/17 01:20:05;;;;;;;0.00;0.00;;;;;;;18.78;63.38;97633.09;5040677;28;20043;-71
2023/07/17 01:22:36;;;;;;;0.10;0.10;;;;;;;18.81;63.19;97629.06;5036496;28;20049;-72
2023/07/17 01:25:07;;;;;;;0.10;0.10;;;;;;;18.80;63.19;97628.25;5039864;28;20087;-72
2023/07/17 01:27:34;;;;;;;0.10;0.10;;;;;;;18.63;63.82;97633.66;5038432;28;20521;-72
2023/07/17 01:30:03;;;;;;;0.03;0.03;;;;;;;18.74;63.46;97641.94;5042006;28;20453;-74
2023/07/17 01:32:31;;;;;;;0.13;0.13;;;;;;;18.67;63.74;97637.53;5015350;28;20116;-71
2023/07/17 01:34:58;;;;;;;0.10;0.10;;;;;;;18.56;64.42;97645.66;5004978;28;20041;-72
2023/07/17 01:37:26;;;;;;;0.00;0.00;;;;;;;18.49;64.60;97644.97;5013240;28;20936;-71
2023/07/17 01:39:54;;;;;;;0.10;0.10;;;;;;;18.45;64.74;97652.78;5001089;28;20518;-71
2023/07/17 01:42:23;;;;;;;0.13;0.13;;;;;;;18.43;64.96;97656.78;5012771;28;20073;-71
2023/07/17 01:44:51;;;;;;;0.03;0.03;;;;;;;18.45;65.21;97646.56;5013016;28;20030;-71
2023/07/17 01:47:19;;;;;;;0.10;0.10;;;;;;;18.48;64.93;97646.88;5000655;28;20042;-72
2023/07/17 01:49:49;;;;;;;0.00;0.00;;;;;;;18.46;65.11;97657.13;5004580;28;20072;-71
2023/07/17 01:52:17;;;;;;;0.10;0.10;;;;;;;18.53;64.89;97648.84;5001329;28;20049;-71
2023/07/17 01:54:45;;;;;;;0.13;0.13;;;;;;;18.40;65.08;97644.56;5002964;28;20080;-72
2023/07/17 01:57:14;;;;;;;0.20;0.20;;;;;;;18.38;65.28;97649.41;5012861;28;20042;-71
2023/07/17 01:59:43;;;;;;;0.10;0.10;;;;;;;18.44;64.91;97651.13;4999455;28;20132;-71
2023/07/17 02:02:11;;;;;;;0.10;0.10;;;;;;;18.50;64.77;97650.16;5003430;28;20582;-71
2023/07/17 02:04:39;;;;;;;0.00;0.00;;;;;;;18.71;64.13;97654.06;5001637;28;20034;-71
2023/07/17 02:07:06;;;;;;;0.10;0.10;;;;;;;18.66;63.88;97652.09;5001588;28;20056;-71
2023/07/17 02:09:34;;;;;;;0.03;0.03;;;;;;;18.43;64.76;97649.50;5002898;28;20136;-71
2023/07/17 02:12:02;;;;;;;0.10;0.10;;;;;;;18.57;64.34;97655.44;5002097;28;20116;-72
2023/07/17 02:14:31;;;;;;;0.10;0.10;;;;;;;18.59;64.46;97656.84;5012542;28;20527;-71
2023/07/17 02:17:00;;;;;;;0.10;0.10;;;;;;;18.54;64.59;97653.19;4998640;28;20077;-71
2023/07/17 02:19:28;;;;;;;0.03;0.03;;;;;;;18.64;64.21;97645.28;5003899;28;20088;-72
2023/07/17 02:21:56;;;;;;;0.15;0.15;;;;;;;18.70;63.90;97645.13;5012206;28;20046;-72
2023/07/17 02:24:23;;;;;;;0.03;0.03;;;;;;;18.60;63.97;97642.25;5011819;28;20037;-71
2023/07/17 02:26:53;;;;;;;0.00;0.00;;;;;;;18.70;63.93;97649.72;5003445;28;20042;-71
2023/07/17 02:29:21;;;;;;;0.00;0.00;;;;;;;18.58;64.11;97651.69;5012096;28;20042;-71
2023/07/17 02:31:48;;;;;;;0.10;0.10;;;;;;;18.61;64.23;97634.97;5024174;28;20526;-71
2023/07/17 02:34:18;;;;;;;0.17;0.17;;;;;;;18.73;63.84;97640.28;5030152;28;20041;-71
2023/07/17 02:36:46;;;;;;;0.28;0.28;;;;;;;18.62;64.04;97644.72;5031939;28;20353;-71
2023/07/17 02:39:14;;;;;;;0.10;0.10;;;;;;;18.64;64.08;97643.41;5030296;28;20124;-71
2023/07/17 02:41:41;;;;;;;0.15;0.15;;;;;;;18.75;63.67;97647.09;5030363;28;20144;-71
2023/07/17 02:44:09;;;;;;;0.10;0.10;;;;;;;18.76;63.49;97656.88;5032025;28;20490;-71
2023/07/17 02:46:36;;;;;;;0.03;0.03;;;;;;;18.87;63.52;97658.66;5030936;28;20045;-75
2023/07/17 02:49:06;;;;;;;0.03;0.03;;;;;;;18.84;63.92;97648.34;5032536;28;20033;-70
2023/07/17 02:51:36;;;;;;;0.10;0.10;;;;;;;18.81;63.94;97651.53;5032217;28;20047;-71
2023/07/17 02:54:04;;;;;;;0.10;0.10;;;;;;;18.93;63.60;97648.75;5030362;28;20091;-71
2023/07/17 02:56:31;;;;;;;0.03;0.03;;;;;;;18.85;63.91;97655.38;5030039;28;20045;-70
2023/07/17 02:59:00;;;;;;;0.00;0.00;;;;;;;18.92;64.06;97656.03;5030382;28;20852;-71
2023/07/17 03:01:28;;;;;;;0.10;0.10;;;;;;;18.81;64.63;97656.09;5029743;28;20045;-71
2023/07/17 03:03:56;;;;;;;0.10;0.10;;;;;;;18.78;64.79;97653.91;5029869;28;20060;-71
2023/07/17 03:06:23;;;;;;;0.08;0.08;;;;;;;18.70;65.06;97644.31;5031277;28;20537;-72
2023/07/17 03:08:52;;;;;;;0.35;0.35;;;;;;;18.61;65.25;97645.78;5031240;28;20402;-71
2023/07/17 03:11:20;;;;;;;0.08;0.08;;;;;;;18.70;64.70;97652.41;5029820;28;20053;-70
2023/07/17 03:13:47;;;;;;;0.10;0.10;;;;;;;18.70;64.92;97661.34;5030278;28;20128;-71
2023/07/17 03:16:15;;;;;;;0.03;0.03;;;;;;;18.68;64.86;97660.81;5030292;28;20125;-72
2023/07/17 03:18:43;;;;;;;0.00;0.00;;;;;;;18.68;64.76;97665.38;5047098;28;20060;-71
2023/07/17 03:21:12;;;;;;;0.10;0.10;;;;;;;18.71;64.65;97659.47;5029301;28;20044;-70
2023/07/17 03:23:39;;;;;;;0.05;0.05;;;;;;;18.86;63.98;97675.16;5029694;28;20037;-71
2023/07/17 03:26:08;;;;;;;0.10;0.10;;;;;;;18.94;63.84;97669.31;5027940;28;20038;-71
2023/07/17 03:28:37;;;;;;;0.15;0.15;;;;;;;18.79;63.76;97661.75;5029497;28;20049;-71
2023/07/17 03:31:05;;;;;;;0.10;0.10;;;;;;;18.82;63.63;97663.16;5029169;28;20072;-71
2023/07/17 03:33:34;;;;;;;0.03;0.03;;;;;;;18.85;63.69;97663.50;5029437;28;20103;-71
2023/07/17 03:36:02;;;;;;;0.30;0.30;;;;;;;18.82;63.79;97682.09;5039761;28;20292;-69
2023/07/17 03:38:29;;;;;;;0.03;0.03;;;;;;;18.77;64.05;97682.03;5028873;28;20050;-71
2023/07/17 03:40:57;;;;;;;0.00;0.00;;;;;;;18.81;64.20;97675.03;5029133;28;20192;-71
2023/07/17 03:43:27;;;;;;;0.00;0.00;;;;;;;18.86;63.49;97683.25;5029129;28;20104;-71
2023/07/17 03:45:56;;;;;;;0.10;0.10;;;;;;;18.73;63.52;97681.69;5028956;28;20095;-71
2023/07/17 03:48:23;;;;;;;0.10;0.10;;;;;;;18.79;63.44;97685.31;5028348;28;20152;-72
2023/07/17 03:50:51;;;;;;;0.00;0.00;;;;;;;18.79;63.51;97683.41;5028295;28;20163;-72
2023/07/17 03:53:19;;;;;;;0.03;0.03;;;;;;;18.85;62.90;97681.63;5025079;28;20037;-72
2023/07/17 03:55:47;;;;;;;0.10;0.10;;;;;;;18.98;62.42;97678.59;5029373;28;20041;-72
2023/07/17 03:58:15;;;;;;;0.20;0.20;;;;;;;18.92;62.36;97682.25;5028792;28;20041;-72
2023/07/17 04:00:44;;;;;;;0.10;0.10;;;;;;;18.81;62.67;97683.16;5029006;28;20062;-72
2023/07/17 04:03:12;;;;;;;0.00;0.00;;;;;;;18.68;62.71;97689.72;5029193;28;20049;-71
2023/07/17 04:05:41;;;;;;;0.10;0.10;;;;;;;18.74;62.48;97687.91;5045188;28;20069;-71
2023/07/17 04:08:09;;;;;;;0.10;0.10;;;;;;;18.59;62.62;97677.63;5029789;28;20495;-71
2023/07/17 04:10:37;;;;;;;0.08;0.08;;;;;;;18.61;62.77;97683.63;5029083;28;20136;-72
2023/07/17 04:13:05;;;;;;;0.20;0.10;;;;;;;18.75;62.39;97676.84;5027869;28;20133;-71
2023/07/17 04:15:35;;;;;;;0.03;0.03;;;;;;;18.82;62.01;97672.09;5028068;28;20049;-72
2023/07/17 04:18:05;;;;;;;0.10;0.10;;;;;;;18.79;61.75;97683.41;5039522;28;20045;-72
2023/07/17 04:20:33;;;;;;;0.10;0.10;;;;;;;18.90;61.42;97690.63;5041071;28;20075;-72
2023/07/17 04:23:01;;;;;;;0.10;0.10;;;;;;;18.90;61.60;97687.09;5028401;28;20049;-71
2023/07/17 04:25:29;;;;;;;0.20;0.20;;;;;;;18.97;61.24;97694.00;5030263;28;20119;-71
2023/07/17 04:27:57;;;;;;;0.03;0.03;;;;;;;19.01;61.27;97687.00;5027007;28;20043;-72
2023/07/17 04:30:25;;;;;;;0.10;0.10;;;;;;;18.86;61.09;97681.38;5039375;28;20049;-71
2023/07/17 04:32:54;;;;;;;0.22;0.22;;;;;;;18.61;61.95;97672.81;5026078;28;20364;-71
2023/07/17 04:35:23;;;;;;;0.10;0.10;;;;;;;18.75;61.43;97686.84;5028374;28;20050;-72
2023/07/17 04:37:54;;;;;;;0.03;0.03;;;;;;;18.87;61.17;97682.19;5024294;28;20049;-72
2023/07/17 04:40:22;;;;;;;0.10;0.10;;;;;;;18.84;60.83;97683.50;5045011;28;20049;-72
2023/07/17 04:42:51;;;;;;;0.03;0.03;;;;;;;18.80;61.08;97686.91;5028851;28;20063;-71
2023/07/17 04:45:20;;;;;;;0.10;0.10;;;;;;;18.83;60.85;97689.16;5027960;28;20124;-70
2023/07/17 04:47:49;;;;;;;0.08;0.08;;;;;;;18.78;60.87;97684.50;5029310;28;20043;-70
2023/07/17 04:50:18;;;;;;;0.10;0.10;;;;;;;18.81;61.04;97685.88;5027561;28;20042;-70
2023/07/17 04:52:47;;;;;;;0.35;0.35;;;;;;;18.93;60.64;97692.84;5028780;28;20801;-71
2023/07/17 04:55:17;;;;;;;0.03;0.03;;;;;;;19.01;59.92;97697.03;5031023;28;20042;-71
2023/07/17 04:57:46;;;;;;;0.10;0.10;;;;;;;19.09;59.61;97696.63;5041144;28;20107;-71
2023/07/17 05:00:15;;;;;;;0.03;0.03;;;;;;;18.88;59.73;97706.31;5029461;28;20033;-71
2023/07/17 05:02:43;;;;;;;0.03;0.03;;;;;;;18.82;59.92;97703.72;5027911;28;20057;-72
2023/07/17 05:05:12;;;;;;;0.10;0.10;;;;;;;18.88;59.64;97710.88;5032084;28;20076;-72
2023/07/17 05:07:41;;;;;;;0.10;0.10;;;;;;;18.90;59.69;97704.16;5033540;28;20037;-72
2023/07/17 05:10:11;;;;;;;0.10;0.10;;;;;;;19.10;59.57;97706.38;5032762;28;20072;-73
2023/07/17 05:12:40;;;;;;;0.10;0.10;;;;;;;19.01;59.33;97714.06;5033080;28;20495;-71
2023/07/17 05:15:10;;;;;;;0.03;0.03;;;;;;;19.02;59.15;97715.72;5031803;28;20049;-72
2023/07/17 05:17:38;;;;;;;0.03;0.03;;;;;;;19.05;58.80;97719.81;5046531;28;20065;-71
2023/07/17 05:20:09;;;;;;;0.15;0.15;;;;;;;19.13;58.87;97713.19;5049195;28;20048;-71
2023/07/17 05:22:38;;;;;;;0.10;0.10;;;;;;;19.13;59.05;97715.88;5033828;28;20060;-71
2023/07/17 05:25:07;;;;;;;0.10;0.10;;;;;;;19.09;59.31;97720.16;5033367;28;20053;-71
2023/07/17 05:27:36;;;;;;;0.05;0.05;;;;;;;19.11;59.11;97720.72;5042629;28;20523;-70
2023/07/17 05:30:06;;;;;;;0.08;0.08;;;;;;;19.11;58.82;97718.81;5031555;28;20041;-73
2023/07/17 05:32:34;;;;;;;0.30;0.30;;;;;;;19.11;58.86;97718.81;5004718;28;20480;-71
2023/07/17 05:35:01;;;;;;;0.03;0.03;;;;;;;19.20;59.19;97721.97;5001517;28;20053;-70
2023/07/17 05:37:29;;;;;;;0.10;0.10;;;;;;;19.20;58.78;97727.38;5002701;28;20157;-71
2023/07/17 05:39:58;;;;;;;0.10;0.10;;;;;;;19.26;58.88;97713.66;5010119;28;20572;-70
2023/07/17 05:42:25;;;;;;;0.05;0.05;;;;;;;19.42;58.20;97710.13;5003989;28;20479;-70
2023/07/17 05:44:55;;;;;;;0.00;0.00;;;;;;;19.61;57.61;97723.44;5003558;28;20050;-70
2023/07/17 05:47:23;;;;;;;0.15;0.15;;;;;;;19.74;57.42;97720.34;5019788;28;20038;-71
2023/07/17 05:49:51;;;;;;;0.03;0.03;;;;;;;19.76;57.34;97727.16;5002420;28;20049;-71
2023/07/17 05:52:19;;;;;;;0.13;0.13;;;;;;;19.71;57.53;97729.00;5014016;28;20049;-71
2023/07/17 05:54:47;;;;;;;0.10;0.10;;;;;;;19.77;57.36;97727.97;5002152;28;20137;-71
2023/07/17 05:57:15;;;;;;;0.13;0.13;;;;;;;19.60;58.18;97736.16;5007581;28;20049;-72
2023/07/17 05:59:43;;;;;;;0.10;0.10;;;;;;;19.64;58.26;97739.16;5003806;28;20100;-71
2023/07/17 06:02:12;;;;;;;0.17;0.17;;;;;;;19.73;58.25;97748.50;5013605;28;20120;-72
2023/07/17 06:04:41;;;;;;;0.10;0.10;;;;;;;19.84;57.81;97742.16;5013046;28;20045;-71
2023/07/17 06:07:10;;;;;;;0.10;0.10;;;;;;;19.78;57.58;97743.16;5012393;28;20041;-71
2023/07/17 06:09:38;;;;;;;0.10;0.10;;;;;;;19.78;58.32;97743.16;5017648;28;20061;-70
2023/07/17 06:12:07;;;;;;;0.00;0.00;;;;;;;19.82;58.01;97738.91;5018443;28;20064;-71
2023/07/17 06:14:34;;;;;;;0.08;0.08;;;;;;;19.84;57.78;97742.16;5019979;28;20113;-70
2023/07/17 06:17:02;;;;;;;0.13;0.13;;;;;;;19.87;57.67;97740.84;5013927;28;20034;-71
2023/07/17 06:19:31;;;;;;;0.03;0.03;;;;;;;20.02;57.55;97743.78;5011719;28;20046;-72
2023/07/17 06:21:59;;;;;;;0.08;0.08;;;;;;;20.11;57.36;97739.56;5011900;28;20222;-71
2023/07/17 06:24:27;;;;;;;0.05;0.05;;;;;;;20.26;56.67;97736.19;5011874;28;20069;-71
2023/07/17 06:26:54;;;;;;;0.10;0.10;;;;;;;20.33;56.24;97747.69;5009789;28;20483;-71
2023/07/17 06:29:24;;;;;;;0.00;0.00;;;;;;;20.43;56.54;97750.53;5012070;28;20121;-72
2023/07/17 06:31:51;;;;;;;0.13;0.13;;;;;;;20.55;54.27;97744.97;5011197;28;20056;-71
2023/07/17 06:34:19;;;;;;;0.10;0.10;;;;;;;20.64;53.36;97746.16;5012322;28;20100;-71
2023/07/17 06:36:50;;;;;;;0.00;0.00;;;;;;;20.79;52.40;97738.97;5010912;28;20056;-72
2023/07/17 06:39:18;;;;;;;0.20;0.20;;;;;;;20.89;52.03;97740.97;5010208;28;20054;-71
2023/07/17 06:41:47;;;;;;;0.10;0.10;;;;;;;20.96;49.35;97744.31;5010417;28;20566;-72
2023/07/17 06:44:16;;;;;;;0.00;0.00;;;;;;;21.06;48.61;97741.69;5000436;28;20327;-71
2023/07/17 06:46:44;;;;;;;0.30;0.30;;;;;;;21.18;48.15;97745.06;5011557;28;20418;-71
2023/07/17 06:49:11;;;;;;;0.10;0.10;;;;;;;21.29;48.37;97743.25;5009498;28;20368;-71
2023/07/17 06:51:39;;;;;;;0.10;0.10;;;;;;;21.39;48.10;97743.31;5012065;28;20116;-71
2023/07/17 06:54:08;;;;;;;0.10;0.10;;;;;;;21.58;46.53;97744.59;5010970;28;20042;-72
2023/07/17 06:56:36;;;;;;;0.17;0.17;;;;;;;21.66;46.28;97740.53;5010374;28;20418;-71
2023/07/17 06:59:03;;;;;;;0.10;0.10;;;;;;;21.76;46.09;97740.63;5009478;28;20041;-72
2023/07/17 07:01:31;;;;;;;0.10;0.10;;;;;;;21.87;45.24;97741.50;5011192;28;20120;-72
2023/07/17 07:03:59;;;;;;;0.10;0.10;;;;;;;22.04;44.47;97739.44;5008811;28;20046;-71
2023/07/17 07:06:27;;;;;;;0.10;0.10;;;;;;;22.27;43.52;97735.47;5008396;28;20066;-71
2023/07/17 07:08:54;;;;;;;0.10;0.10;;;;;;;22.51;42.73;97724.94;5006979;28;20114;-71
2023/07/17 07:11:23;;;;;;;0.10;0.10;;;;;;;22.66;41.12;97733.94;5011069;28;20049;-72
2023/07/17 07:13:51;;;;;;;0.00;0.00;;;;;;;22.77;41.54;97734.00;5009974;28;20067;-71
2023/07/17 07:16:18;;;;;;;0.10;0.10;;;;;;;22.91;40.83;97727.75;5011133;28;20137;-72
2023/07/17 07:18:46;;;;;;;0.10;0.10;;;;;;;23.01;40.63;97730.50;5010922;28;20038;-71
2023/07/17 07:21:14;;;;;;;0.10;0.10;;;;;;;23.18;40.29;97729.41;5011760;28;20112;-71
2023/07/17 07:23:42;;;;;;;0.10;0.10;;;;;;;23.09;39.72;97736.50;5011275;28;20038;-72
2023/07/17 07:26:10;;;;;;;0.03;0.03;;;;;;;23.21;39.58;97723.41;5012229;28;20136;-73
2023/07/17 07:28:39;;;;;;;0.03;0.03;;;;;;;23.25;39.74;97728.06;5009538;28;20044;-71
2023/07/17 07:31:06;;;;;;;0.10;0.10;;;;;;;23.53;39.19;97726.72;5026757;28;20053;-71
2023/07/17 07:33:34;;;;;;;0.03;0.03;;;;;;;23.63;39.00;97726.69;5042680;28;20528;-71
2023/07/17 07:36:02;;;;;;;0.15;0.15;;;;;;;23.51;38.30;97728.88;5036594;28;20045;-71
2023/07/17 07:38:29;;;;;;;0.03;0.03;;;;;;;23.40;38.84;97728.03;5039100;28;20037;-70
2023/07/17 07:41:01;;;;;;;0.05;0.05;;;;;;;23.58;38.71;97734.84;5040635;28;20175;-71
2023/07/17 07:43:28;;;;;;;0.03;0.03;;;;;;;23.66;38.68;97734.31;5040868;28;20127;-71
2023/07/17 07:45:57;;;;;;;0.05;0.05;;;;;;;23.57;38.66;97735.13;5040733;28;20049;-71
2023/07/17 07:48:25;;;;;;;0.10;0.10;;;;;;;23.76;38.50;97734.31;5040340;28;20033;-71
2023/07/17 07:50:53;;;;;;;0.03;0.03;;;;;;;24.07;38.44;97739.69;5039982;28;20075;-71
2023/07/17 07:53:20;;;;;;;0.10;0.10;;;;;;;23.76;38.67;97733.50;5041130;28;20056;-71
2023/07/17 07:55:48;;;;;;;0.10;0.10;;;;;;;23.79;38.07;97741.91;5039708;28;20049;-71
2023/07/17 07:58:16;;;;;;;0.10;0.10;;;;;;;23.97;37.73;97732.34;5041090;28;20065;-70
2023/07/17 08:00:43;;;;;;;0.08;0.08;;;;;;;24.12;37.12;97739.66;5039350;28;20142;-71
2023/07/17 08:03:12;;;;;;;0.03;0.03;;;;;;;23.78;38.00;97739.47;5041370;28;20621;-71
2023/07/17 08:05:40;;;;;;;0.03;0.03;;;;;;;23.67;38.21;97744.13;5040392;28;20041;-70
2023/07/17 08:08:08;;;;;;;0.03;0.03;;;;;;;23.80;36.98;97748.19;5039042;28;20567;-70
2023/07/17 08:10:38;;;;;;;0.10;0.10;;;;;;;24.06;36.84;97749.78;5038562;28;20051;-71
2023/07/17 08:13:06;;;;;;;0.00;0.00;;;;;;;24.41;35.88;97748.84;5039935;28;20072;-70
2023/07/17 08:15:34;;;;;;;0.00;0.00;;;;;;;24.57;36.01;97749.59;5039206;28;20055;-71
2023/07/17 08:18:01;;;;;;;0.00;0.00;;;;;;;24.56;36.10;97749.88;5039420;28;20057;-71
2023/07/17 08:20:30;;;;;;;0.00;0.00;;;;;;;24.70;35.83;97750.91;5040909;28;20037;-71
2023/07/17 08:22:58;;;;;;;0.00;0.00;;;;;;;24.98;35.61;97750.19;5038130;28;20055;-71
2023/07/17 08:25:26;;;;;;;0.00;0.00;;;;;;;25.09;35.64;97749.03;5039860;28;20095;-71
2023/07/17 08:27:54;;;;;;;0.03;0.03;;;;;;;24.93;35.52;97763.06;5037741;28;20061;-71
2023/07/17 08:30:22;;;;;;;0.00;0.00;;;;;;;25.06;35.88;97760.50;5040291;28;20045;-71
2023/07/17 08:32:50;;;;;;;0.00;0.00;;;;;;;24.84;35.68;97746.41;5039515;28;20129;-71
2023/07/17 08:35:17;;;;;;;0.03;0.03;;;;;;;25.16;35.20;97756.88;5039991;28;20079;-71
2023/07/17 08:37:46;;;;;;;0.20;0.20;;;;;;;25.15;34.70;97742.41;5038580;28;20414;-71
2023/07/17 08:40:14;;;;;;;0.00;0.00;;;;;;;25.38;34.24;97749.06;5039830;28;20048;-71
2023/07/17 08:42:44;;;;;;;0.00;0.00;;;;;;;25.51;34.37;97755.81;5040374;28;20056;-71
2023/07/17 08:45:13;;;;;;;0.03;0.03;;;;;;;25.39;34.45;97752.63;5039512;28;20132;-72
2023/07/17 08:47:41;;;;;;;0.00;0.00;;;;;;;25.44;34.33;97760.75;5039679;28;20056;-71
2023/07/17 08:50:10;;;;;;;0.00;0.00;;;;;;;25.63;33.47;97748.06;5039450;28;20048;-71
2023/07/17 08:52:38;;;;;;;0.00;0.00;;;;;;;25.77;33.08;97756.41;5040814;28;20112;-71
2023/07/17 08:55:08;;;;;;;0.00;0.00;;;;;;;25.75;33.19;97744.94;5040562;28;20112;-71
2023/07/17 08:57:36;;;;;;;0.00;0.00;;;;;;;25.75;32.77;97755.91;5039646;28;20041;-71
2023/07/17 09:00:05;;;;;;;0.03;0.03;;;;;;;25.62;33.14;97767.50;5040224;28;20052;-71
2023/07/17 09:02:33;;;;;;;0.03;0.03;;;;;;;25.23;33.61;97747.25;5039695;28;20042;-71
2023/07/17 09:05:03;;;;;;;0.00;0.00;;;;;;;25.12;33.77;97747.66;5039789;28;20055;-71
2023/07/17 09:07:31;;;;;;;0.00;0.00;;;;;;;25.51;33.61;97755.81;5040324;28;20088;-73
2023/07/17 09:10:15;;;;;;;0.00;0.00;;;;;;;25.34;32.58;97753.47;5037913;28;20037;-71
2023/07/17 09:12:43;;;;;;;0.00;0.00;;;;;;;25.46;32.68;97762.13;5039988;28;20107;-71
2023/07/17 09:15:15;;;;;;;0.00;0.00;;;;;;;25.44;33.12;97753.38;5039339;28;20049;-71
2023/07/17 09:17:43;;;;;;;0.10;0.10;;;;;;;26.15;33.07;97755.47;5039154;28;20119;-71
2023/07/17 09:20:13;;;;;;;0.03;0.03;;;;;;;25.70;33.23;97756.75;5039718;28;20091;-70
2023/07/17 09:22:41;;;;;;;0.10;0.10;;;;;;;25.31;33.68;97748.59;5039091;28;20044;-70
2023/07/17 09:25:09;;;;;;;0.00;0.00;;;;;;;25.16;34.03;97762.34;5039447;28;20090;-71
2023/07/17 09:27:46;;;;;;;0.00;0.00;;;;;;;25.23;33.66;97754.63;5020738;28;20049;-71
2023/07/17 09:30:15;;;;;;;0.03;0.03;;;;;;;25.07;34.09;97764.88;5036374;28;20030;-71
2023/07/17 09:32:44;;;;;;;0.00;0.00;;;;;;;25.56;32.86;97762.03;5038843;28;20471;-71
2023/07/17 09:35:12;;;;;;;0.00;0.00;;;;;;;25.48;33.01;97748.97;5037052;28;20065;-70
2023/07/17 09:37:41;;;;;;;0.10;0.10;;;;;;;25.79;32.97;97755.00;5038602;28;20041;-71
2023/07/17 09:40:13;;;;;;;0.00;0.00;;;;;;;25.70;32.76;97761.41;5038397;28;20044;-71
2023/07/17 09:42:42;;;;;;;0.10;0.10;;;;;;;25.44;33.47;97749.81;5039520;28;20115;-72
2023/07/17 09:45:12;;;;;;;0.10;0.10;;;;;;;25.64;33.30;97754.34;5038863;28;20041;-70
2023/07/17 09:47:40;;;;;;;0.10;0.10;;;;;;;25.86;32.95;97750.00;5038239;28;20085;-70
2023/07/17 09:50:08;;;;;;;0.13;0.13;;;;;;;26.14;31.37;97740.16;5038564;28;20376;-71
2023/07/17 09:52:36;;;;;;;0.10;0.10;;;;;;;26.05;31.34;97752.84;5042762;28;20054;-70
2023/07/17 09:55:05;;;;;;;0.00;0.00;;;;;;;26.44;30.95;97755.41;5042502;28;20047;-71
2023/07/17 09:57:35;;;;;;;0.00;0.00;;;;;;;26.34;30.51;97752.81;5042187;28;20045;-70
2023/07/17 10:00:11;;;;;;;0.10;0.10;;;;;;;26.10;30.44;97741.81;5038953;28;20038;-70
2023/07/17 10:02:42;;;;;;;0.00;0.00;;;;;;;26.12;30.05;97749.75;5039977;28;20072;-70
2023/07/17 10:05:10;;;;;;;0.00;0.00;;;;;;;26.17;30.19;97755.97;5042496;28;20051;-71
2023/07/17 10:07:38;;;;;;;0.00;0.00;;;;;;;26.21;30.26;97750.72;5042558;28;20045;-71
2023/07/17 10:10:09;;;;;;;0.00;0.00;;;;;;;26.33;30.73;97740.22;5042701;28;20555;-71
2023/07/17 10:12:38;;;;;;;0.00;0.00;;;;;;;25.97;31.61;97753.44;5042344;28;20124;-70
2023/07/17 10:15:07;;;;;;;0.22;0.22;;;;;;;25.85;31.73;97747.59;5039513;28;20359;-71
2023/07/17 10:17:36;;;;;;;0.00;0.00;;;;;;;25.94;31.60;97748.56;5042195;28;20076;-71
2023/07/17 10:20:08;;;;;;;0.00;0.00;;;;;;;26.02;31.26;97752.59;5040677;28;20065;-71
2023/07/17 10:22:38;;;;;;;0.00;0.00;;;;;;;26.06;31.86;97737.25;5042233;28;20072;-71
2023/07/17 10:25:11;;;;;;;0.00;0.00;;;;;;;26.17;31.70;97745.00;5042213;28;20121;-71
2023/07/17 10:27:39;;;;;;;0.05;0.05;;;;;;;26.47;31.04;97745.81;5038821;28;20083;-71
2023/07/17 10:32:40;;;;;;;0.00;0.00;;;;;;;27.40;30.10;97736.78;5030035;28;20050;-72
2023/07/17 10:35:19;;;;;;;0.00;0.00;;;;;;;27.03;29.58;97745.84;5032070;28;20528;-72
2023/07/17 10:37:47;;;;;;;0.00;0.00;;;;;;;27.04;29.97;97739.25;5046987;28;20505;-72
2023/07/17 10:40:28;;;;;;;0.00;0.00;;;;;;;27.10;29.37;97743.53;5031802;28;20572;-72
2023/07/17 10:43:10;;;;;;;0.00;0.00;;;;;;;27.11;29.28;97736.13;5031769;28;20045;-73
2023/07/17 10:45:38;;;;;;;0.10;0.10;;;;;;;27.09;29.99;97733.72;5031983;28;20464;-72
2023/07/17 10:48:06;;;;;;;0.20;0.20;;;;;;;26.66;31.06;97722.81;5028670;28;20656;-73
2023/07/17 10:50:36;;;;;;;0.00;0.00;;;;;;;26.29;30.64;97726.28;5031397;28;20048;-72
2023/07/17 10:53:04;;;;;;;0.00;0.00;;;;;;;26.18;30.55;97732.16;5031108;28;20650;-73
2023/07/17 10:55:32;;;;;;;0.00;0.00;;;;;;;25.95;30.95;97722.84;5031502;28;20165;-73
2023/07/17 10:58:01;;;;;;;0.00;0.00;;;;;;;26.06;31.40;97720.81;5032126;28;20433;-72
2023/07/17 11:00:29;;;;;;;0.00;0.00;;;;;;;25.71;30.37;97728.28;5040005;28;20127;-72
2023/07/17 11:02:59;;;;;;;0.00;0.00;;;;;;;25.78;29.44;97712.34;5038374;28;20068;-73
2023/07/17 11:05:26;;;;;;;0.20;0.20;;;;;;;26.23;28.53;97711.03;5038269;28;20429;-73
2023/07/17 11:07:58;;;;;;;0.08;0.08;;;;;;;26.42;28.61;97699.31;5037350;28;20041;-72
2023/07/17 11:10:26;;;;;;;0.00;0.00;;;;;;;26.61;28.62;97717.38;5033455;28;20048;-73
2023/07/17 11:12:53;;;;;;;0.00;0.00;;;;;;;26.62;27.34;97708.06;5030150;28;20099;-73
2023/07/17 11:15:21;;;;;;;0.15;0.15;;;;;;;26.76;27.24;97710.06;5030974;28;20367;-74
2023/07/17 11:17:50;;;;;;;0.00;0.00;;;;;;;27.06;26.86;97726.09;5030773;28;20068;-73
2023/07/17 11:20:18;;;;;;;0.10;0.10;;;;;;;27.02;26.70;97714.88;5031551;28;20048;-73
2023/07/17 11:22:47;;;;;;;0.05;0.05;;;;;;;26.79;25.64;97714.94;5031414;28;20053;-73
2023/07/17 11:25:16;;;;;;;0.03;0.03;;;;;;;26.77;26.09;97698.00;5030933;28;20041;-73
2023/07/17 11:27:44;;;;;;;0.00;0.00;;;;;;;26.25;26.79;97708.81;5030714;28;20482;-73
2023/07/17 11:30:20;;;;;;;0.00;0.00;;;;;;;26.44;27.05;97700.66;5030927;28;20037;-72
2023/07/17 11:33:01;;;;;;;0.10;0.10;;;;;;;26.22;26.62;97703.09;5011781;28;20176;-73
2023/07/17 11:35:42;;;;;;;0.00;0.00;;;;;;;26.19;26.71;97706.41;5011651;28;20942;-73
2023/07/17 11:38:12;;;;;;;0.10;0.10;;;;;;;26.67;25.89;97699.78;5011295;28;20450;-73
2023/07/17 11:40:54;;;;;;;0.00;0.00;;;;;;;27.17;25.52;97693.84;5010812;28;20069;-72
2023/07/17 11:43:29;;;;;;;0.00;0.00;;;;;;;27.47;24.90;97692.50;5011115;28;20038;-73